Time;durP1;ratioP1;P1;durP2;ratioP2;P2;SDS_P1;SDS_P2;PMS_P1;PMS_P2;Temp;Humidity;BMP_temperature;BMP_pressure;BME280_temperature;BME280_humidity;BME280_pressure;Samples;Min_cycle;Max_cycle;Signal;HPM_P1;HPM_P2
2021/06/03 00:00:48;;;;;;;10.70;7.50;;;;;;;;;;708133;194;919342;-70
2021/06/03 00:03:14;;;;;;;11.93;7.30;;;;;;;;;;715132;195;917580;-72
2021/06/03 00:05:40;;;;;;;11.97;7.87;;;;;;;;;;712788;194;916326;-72
2021/06/03 00:08:05;;;;;;;18.47;10.87;;;;;;;;;;711333;195;921509;-72
2021/06/03 00:10:31;;;;;;;13.10;8.37;;;;;;;;;;715495;195;919561;-71
2021/06/03 00:12:57;;;;;;;12.13;8.30;;;;;;;;;;713521;195;919132;-72
2021/06/03 00:15:23;;;;;;;11.50;9.37;;;;;;;;;;709540;195;920908;-72
2021/06/03 00:17:49;;;;;;;12.00;9.67;;;;;;;;;;717650;194;920684;-72
2021/06/03 00:20:15;;;;;;;10.03;8.30;;;;;;;;;;708599;195;919854;-72
2021/06/03 00:22:41;;;;;;;13.70;8.73;;;;;;;;;;709860;195;919373;-71
2021/06/03 00:25:07;;;;;;;11.20;8.70;;;;;;;;;;710309;195;919413;-71
2021/06/03 00:27:33;;;;;;;13.33;9.50;;;;;;;;;;720901;193;919201;-72
2021/06/03 00:29:59;;;;;;;12.03;9.77;;;;;;;;;;711571;195;919326;-72
2021/06/03 00:32:25;;;;;;;14.70;10.63;;;;;;;;;;713675;195;919596;-71
2021/06/03 00:34:51;;;;;;;12.67;9.53;;;;;;;;;;717779;195;918257;-72
2021/06/03 00:37:16;;;;;;;15.57;10.80;;;;;;;;;;709614;195;953525;-71
2021/06/03 00:39:42;;;;;;;13.33;9.27;;;;;;;;;;712740;195;918114;-73
2021/06/03 00:42:08;;;;;;;11.73;9.10;;;;;;;;;;715549;194;919765;-72
2021/06/03 00:44:34;;;;;;;15.20;10.10;;;;;;;;;;712925;195;918108;-72
2021/06/03 00:47:00;;;;;;;12.20;9.90;;;;;;;;;;712354;194;916299;-72
2021/06/03 00:49:26;;;;;;;12.30;10.33;;;;;;;;;;714128;195;918197;-72
2021/06/03 00:51:51;;;;;;;15.07;9.57;;;;;;;;;;708391;195;918893;-73
2021/06/03 00:54:17;;;;;;;12.53;9.30;;;;;;;;;;708931;195;920260;-75
2021/06/03 00:56:43;;;;;;;12.00;9.80;;;;;;;;;;707652;195;917924;-72
2021/06/03 00:59:09;;;;;;;12.47;9.50;;;;;;;;;;716474;195;917981;-72
2021/06/03 01:01:35;;;;;;;13.50;9.90;;;;;;;;;;711447;195;918821;-72
2021/06/03 01:04:01;;;;;;;14.63;10.30;;;;;;;;;;710471;195;919420;-72
2021/06/03 01:06:27;;;;;;;11.90;10.10;;;;;;;;;;713037;195;919402;-72
2021/06/03 01:08:59;;;;;;;16.43;9.90;;;;;;;;;;713315;193;917482;-72
2021/06/03 01:11:24;;;;;;;12.90;10.27;;;;;;;;;;714022;194;920832;-72
2021/06/03 01:13:50;;;;;;;15.80;10.32;;;;;;;;;;710597;195;918541;-72
2021/06/03 01:16:16;;;;;;;17.13;11.80;;;;;;;;;;714041;194;926375;-72
2021/06/03 01:18:42;;;;;;;14.90;9.80;;;;;;;;;;711611;194;1191881;-72
2021/06/03 01:21:08;;;;;;;17.03;11.63;;;;;;;;;;711852;195;986423;-71
2021/06/03 01:23:34;;;;;;;15.73;11.00;;;;;;;;;;713539;197;917997;-71
2021/06/03 01:25:59;;;;;;;15.20;10.67;;;;;;;;;;706867;195;918506;-72
2021/06/03 01:28:25;;;;;;;14.85;10.98;;;;;;;;;;709367;195;918268;-72
2021/06/03 01:30:51;;;;;;;18.03;11.53;;;;;;;;;;716428;195;919979;-72
2021/06/03 01:33:17;;;;;;;14.17;11.57;;;;;;;;;;710889;195;918707;-72
2021/06/03 01:35:43;;;;;;;14.87;10.63;;;;;;;;;;706166;195;920029;-73
2021/06/03 01:38:09;;;;;;;15.07;10.63;;;;;;;;;;714244;195;921009;-70
2021/06/03 01:40:35;;;;;;;15.30;10.80;;;;;;;;;;712825;195;914329;-72
2021/06/03 01:43:01;;;;;;;15.77;11.23;;;;;;;;;;712286;194;918522;-72
2021/06/03 01:45:27;;;;;;;16.63;11.17;;;;;;;;;;708528;195;938324;-72
2021/06/03 01:47:53;;;;;;;15.33;10.57;;;;;;;;;;715877;195;909807;-72
2021/06/03 01:50:19;;;;;;;14.00;10.90;;;;;;;;;;710810;194;910350;-72
2021/06/03 01:52:44;;;;;;;21.67;11.43;;;;;;;;;;704997;195;918403;-73
2021/06/03 01:55:10;;;;;;;14.20;11.47;;;;;;;;;;714480;194;1134788;-72
2021/06/03 01:57:36;;;;;;;20.90;10.20;;;;;;;;;;711559;195;904509;-72
2021/06/03 02:00:02;;;;;;;18.20;11.40;;;;;;;;;;711967;195;921293;-72
2021/06/03 02:02:28;;;;;;;18.13;10.60;;;;;;;;;;713028;195;901731;-73
2021/06/03 02:04:54;;;;;;;15.00;12.00;;;;;;;;;;710395;195;920484;-72
2021/06/03 02:07:20;;;;;;;12.10;10.80;;;;;;;;;;711704;195;916850;-72
2021/06/03 02:09:45;;;;;;;16.13;12.37;;;;;;;;;;713190;194;914823;-72
2021/06/03 02:12:11;;;;;;;13.90;10.50;;;;;;;;;;714777;195;915885;-72
2021/06/03 02:14:37;;;;;;;12.97;11.00;;;;;;;;;;711682;195;919461;-72
2021/06/03 02:17:06;;;;;;;14.87;11.85;;;;;;;;;;714636;194;920452;-73
2021/06/03 02:19:32;;;;;;;17.30;11.37;;;;;;;;;;716902;195;919887;-74
2021/06/03 02:21:58;;;;;;;15.10;11.30;;;;;;;;;;710345;195;918784;-74
2021/06/03 02:24:23;;;;;;;18.27;11.00;;;;;;;;;;714126;195;919055;-75
2021/06/03 02:26:49;;;;;;;15.00;11.27;;;;;;;;;;716986;195;918305;-75
2021/06/03 02:29:15;;;;;;;15.60;11.80;;;;;;;;;;713111;194;919142;-74
2021/06/03 02:31:41;;;;;;;15.90;11.50;;;;;;;;;;707357;195;1503281;-74
2021/06/03 02:34:07;;;;;;;15.43;11.67;;;;;;;;;;714310;194;938818;-75
2021/06/03 02:36:33;;;;;;;19.50;11.27;;;;;;;;;;712211;196;918798;-74
2021/06/03 02:38:58;;;;;;;12.40;10.53;;;;;;;;;;709613;194;919756;-74
2021/06/03 02:41:24;;;;;;;13.90;10.60;;;;;;;;;;713158;195;918626;-74
2021/06/03 02:43:50;;;;;;;14.85;11.65;;;;;;;;;;714958;195;1019057;-73
2021/06/03 02:46:16;;;;;;;14.80;10.83;;;;;;;;;;709470;195;918218;-73
2021/06/03 02:48:42;;;;;;;19.23;12.10;;;;;;;;;;711871;195;918992;-74
2021/06/03 02:51:08;;;;;;;13.90;9.93;;;;;;;;;;714598;195;917924;-73
2021/06/03 02:53:34;;;;;;;14.80;12.02;;;;;;;;;;707740;195;919449;-73
2021/06/03 02:56:00;;;;;;;14.60;11.80;;;;;;;;;;711964;195;918874;-73
2021/06/03 02:58:25;;;;;;;14.10;11.40;;;;;;;;;;717603;195;920518;-73
2021/06/03 03:00:51;;;;;;;15.80;12.37;;;;;;;;;;711080;194;920635;-72
2021/06/03 03:03:18;;;;;;;14.50;12.40;;;;;;;;;;710012;195;1008943;-73
2021/06/03 03:05:43;;;;;;;24.60;11.43;;;;;;;;;;712897;195;919310;-72
2021/06/03 03:08:09;;;;;;;25.70;12.93;;;;;;;;;;714328;195;1021903;-72
2021/06/03 03:10:35;;;;;;;22.03;14.80;;;;;;;;;;711154;195;918861;-72
2021/06/03 03:13:00;;;;;;;18.00;14.37;;;;;;;;;;712888;195;919048;-73
2021/06/03 03:15:26;;;;;;;21.83;14.03;;;;;;;;;;714931;195;918149;-73
2021/06/03 03:17:52;;;;;;;19.67;13.07;;;;;;;;;;712954;195;919020;-74
2021/06/03 03:20:18;;;;;;;25.00;12.73;;;;;;;;;;709009;195;922627;-74
2021/06/03 03:22:44;;;;;;;19.13;13.17;;;;;;;;;;716346;196;918591;-73
2021/06/03 03:25:10;;;;;;;18.90;14.30;;;;;;;;;;712212;195;920329;-73
2021/06/03 03:27:36;;;;;;;23.77;15.17;;;;;;;;;;712073;195;919233;-73
2021/06/03 03:30:01;;;;;;;18.30;14.55;;;;;;;;;;712029;195;922169;-73
2021/06/03 03:32:27;;;;;;;17.93;13.53;;;;;;;;;;710958;195;918861;-73
2021/06/03 03:34:53;;;;;;;18.02;13.35;;;;;;;;;;712529;194;919805;-73
2021/06/03 03:37:19;;;;;;;19.30;14.17;;;;;;;;;;708904;195;1001127;-73
2021/06/03 03:39:45;;;;;;;20.10;13.50;;;;;;;;;;718766;195;816004;-74
2021/06/03 03:42:11;;;;;;;19.20;14.73;;;;;;;;;;711648;195;918131;-74
2021/06/03 03:44:36;;;;;;;19.30;14.67;;;;;;;;;;707195;194;1640548;-73
2021/06/03 03:47:02;;;;;;;18.70;13.57;;;;;;;;;;716485;195;917865;-74
2021/06/03 03:49:28;;;;;;;17.33;13.90;;;;;;;;;;712329;195;917459;-71
2021/06/03 03:51:54;;;;;;;21.23;14.33;;;;;;;;;;710683;195;918762;-73
2021/06/03 03:54:20;;;;;;;18.97;13.70;;;;;;;;;;715764;195;924810;-73
2021/06/03 03:56:46;;;;;;;20.97;13.93;;;;;;;;;;711530;194;922603;-73
2021/06/03 03:59:12;;;;;;;20.67;13.15;;;;;;;;;;712568;194;919639;-74
2021/06/03 04:01:38;;;;;;;21.83;14.63;;;;;;;;;;709344;195;918319;-70
2021/06/03 04:04:03;;;;;;;17.63;13.23;;;;;;;;;;714048;195;916389;-73
2021/06/03 04:06:29;;;;;;;24.13;14.67;;;;;;;;;;713795;194;917325;-70
2021/06/03 04:08:55;;;;;;;19.53;15.57;;;;;;;;;;710048;195;923683;-73
2021/06/03 04:11:24;;;;;;;20.60;14.17;;;;;;;;;;716535;195;920164;-74
2021/06/03 04:13:47;;;;;;;28.60;16.37;;;;;;;;;;710064;195;919272;-73
2021/06/03 04:16:13;;;;;;;20.63;16.20;;;;;;;;;;710712;195;916911;-72
2021/06/03 04:18:38;;;;;;;21.57;13.90;;;;;;;;;;715873;195;917371;-73
2021/06/03 04:21:04;;;;;;;20.73;14.67;;;;;;;;;;708448;195;918886;-74
2021/06/03 04:23:30;;;;;;;17.80;14.53;;;;;;;;;;710538;195;1021489;-74
2021/06/03 04:25:56;;;;;;;25.00;15.53;;;;;;;;;;713462;194;918096;-72
2021/06/03 04:28:22;;;;;;;17.87;14.57;;;;;;;;;;715089;196;918807;-73
2021/06/03 04:30:48;;;;;;;20.00;14.90;;;;;;;;;;711291;195;918126;-72
2021/06/03 04:33:20;;;;;;;18.80;13.63;;;;;;;;;;715943;193;919520;-72
2021/06/03 04:35:40;;;;;;;25.67;15.30;;;;;;;;;;716635;194;918101;-73
2021/06/03 04:38:06;;;;;;;17.73;14.93;;;;;;;;;;710893;195;1021299;-73
2021/06/03 04:40:32;;;;;;;22.27;15.18;;;;;;;;;;715654;194;1022526;-72
2021/06/03 04:42:58;;;;;;;19.67;13.50;;;;;;;;;;715876;195;986402;-70
2021/06/03 04:45:24;;;;;;;18.90;13.20;;;;;;;;;;713498;195;1016459;-73
2021/06/03 04:47:49;;;;;;;17.03;13.17;;;;;;;;;;712110;195;1020853;-73
2021/06/03 04:50:15;;;;;;;22.57;16.20;;;;;;;;;;712281;195;1018197;-74
2021/06/03 04:52:41;;;;;;;19.20;14.67;;;;;;;;;;707858;195;1124452;-73
2021/06/03 04:55:08;;;;;;;19.90;13.73;;;;;;;;;;714257;195;916395;-72
2021/06/03 04:57:34;;;;;;;20.47;12.80;;;;;;;;;;708531;195;922168;-73
2021/06/03 05:00:00;;;;;;;21.70;15.02;;;;;;;;;;714721;195;1005027;-73
2021/06/03 05:02:26;;;;;;;17.00;13.77;;;;;;;;;;712653;195;920754;-73
2021/06/03 05:04:52;;;;;;;21.03;14.27;;;;;;;;;;713197;195;943583;-73
2021/06/03 05:07:18;;;;;;;18.33;13.47;;;;;;;;;;715763;195;919090;-74
2021/06/03 05:09:43;;;;;;;22.20;14.03;;;;;;;;;;711366;195;918477;-73
2021/06/03 05:12:09;;;;;;;19.97;13.90;;;;;;;;;;711055;195;1020691;-71
2021/06/03 05:14:35;;;;;;;14.40;11.60;;;;;;;;;;713494;195;916536;-74
2021/06/03 05:17:01;;;;;;;23.07;12.37;;;;;;;;;;710497;195;922697;-74
2021/06/03 05:19:27;;;;;;;18.73;12.50;;;;;;;;;;710453;195;912610;-73
2021/06/03 05:21:53;;;;;;;18.87;13.27;;;;;;;;;;713082;194;912637;-75
2021/06/03 05:24:18;;;;;;;15.33;11.93;;;;;;;;;;712697;195;910338;-73
2021/06/03 05:26:44;;;;;;;16.02;12.37;;;;;;;;;;712788;194;912626;-74
2021/06/03 05:29:14;;;;;;;18.20;13.13;;;;;;;;;;709263;195;915802;-76
2021/06/03 05:31:36;;;;;;;16.60;11.95;;;;;;;;;;714772;194;909487;-77
2021/06/03 05:34:02;;;;;;;20.43;12.50;;;;;;;;;;710939;195;919274;-77
2021/06/03 05:36:28;;;;;;;19.27;12.17;;;;;;;;;;709448;195;919314;-75
2021/06/03 05:38:54;;;;;;;27.43;13.70;;;;;;;;;;714837;195;816095;-77
2021/06/03 05:41:19;;;;;;;19.73;13.03;;;;;;;;;;712028;195;921233;-77
2021/06/03 05:43:45;;;;;;;20.60;13.40;;;;;;;;;;708125;195;919369;-77
2021/06/03 05:46:11;;;;;;;19.10;12.30;;;;;;;;;;714864;195;919567;-77
2021/06/03 05:48:37;;;;;;;21.57;14.47;;;;;;;;;;712676;194;920592;-78
2021/06/03 05:51:03;;;;;;;24.10;13.93;;;;;;;;;;709873;195;906029;-78
2021/06/03 05:53:29;;;;;;;14.33;11.90;;;;;;;;;;713833;194;914320;-78
2021/06/03 05:55:55;;;;;;;17.23;12.90;;;;;;;;;;717503;195;906221;-79
2021/06/03 05:58:20;;;;;;;22.20;13.40;;;;;;;;;;710775;195;900823;-78
2021/06/03 06:00:46;;;;;;;17.47;14.07;;;;;;;;;;711817;196;913635;-80
2021/06/03 06:03:18;;;;;;;17.70;14.33;;;;;;;;;;714501;195;980875;-78
2021/06/03 06:08:14;;;;;;;20.67;12.53;;;;;;;;;;709378;195;811875;-83
2021/06/03 06:10:40;;;;;;;21.20;13.10;;;;;;;;;;700043;196;1122888;-81
2021/06/03 06:13:05;;;;;;;20.47;12.17;;;;;;;;;;714760;195;917178;-83
2021/06/03 06:15:31;;;;;;;14.80;11.93;;;;;;;;;;711539;195;1013704;-81
2021/06/03 06:17:58;;;;;;;21.08;14.05;;;;;;;;;;711921;194;913857;-81
2021/06/03 06:20:23;;;;;;;16.73;12.50;;;;;;;;;;715978;195;785726;-79
2021/06/03 06:22:49;;;;;;;18.20;12.50;;;;;;;;;;716145;195;916932;-81
2021/06/03 06:25:15;;;;;;;15.40;11.70;;;;;;;;;;711050;195;990373;-81
2021/06/03 06:27:41;;;;;;;18.77;11.90;;;;;;;;;;705437;198;918507;-77
2021/06/03 06:30:08;;;;;;;17.87;12.50;;;;;;;;;;715727;193;800568;-84
2021/06/03 06:32:33;;;;;;;18.47;13.07;;;;;;;;;;712335;195;913833;-82
2021/06/03 06:34:59;;;;;;;15.70;11.47;;;;;;;;;;719738;180;812291;-77
2021/06/03 06:37:25;;;;;;;17.50;10.50;;;;;;;;;;732189;189;914064;-78
2021/06/03 06:39:51;;;;;;;25.70;11.07;;;;;;;;;;727035;187;915498;-77
2021/06/03 06:42:17;;;;;;;17.20;10.63;;;;;;;;;;743060;187;752192;-78
2021/06/03 06:44:43;;;;;;;15.90;11.90;;;;;;;;;;748968;187;912971;-79
2021/06/03 06:47:09;;;;;;;15.35;11.50;;;;;;;;;;738617;187;833035;-77
2021/06/03 06:49:34;;;;;;;14.33;10.83;;;;;;;;;;742722;187;925272;-77
2021/06/03 06:52:00;;;;;;;17.27;10.50;;;;;;;;;;748132;187;832000;-78
2021/06/03 06:54:26;;;;;;;15.83;9.80;;;;;;;;;;741406;187;914627;-78
2021/06/03 06:56:52;;;;;;;15.20;8.88;;;;;;;;;;744950;184;914158;-78
2021/06/03 06:59:18;;;;;;;18.17;10.23;;;;;;;;;;739862;186;856889;-78
2021/06/03 07:01:44;;;;;;;17.83;8.63;;;;;;;;;;746596;186;945309;-78
2021/06/03 07:04:10;;;;;;;14.80;10.00;;;;;;;;;;737671;186;932354;-78
2021/06/03 07:06:36;;;;;;;15.68;9.05;;;;;;;;;;741541;186;937265;-77
2021/06/03 07:09:02;;;;;;;11.40;9.50;;;;;;;;;;745705;186;899515;-78
2021/06/03 07:11:28;;;;;;;12.40;7.30;;;;;;;;;;743660;186;914209;-78
2021/06/03 07:13:54;;;;;;;9.90;7.50;;;;;;;;;;739552;186;942869;-78
2021/06/03 07:16:20;;;;;;;13.63;7.60;;;;;;;;;;745651;186;921126;-78
2021/06/03 07:18:46;;;;;;;12.30;8.57;;;;;;;;;;741986;186;822346;-77
2021/06/03 07:21:11;;;;;;;22.87;9.00;;;;;;;;;;741260;186;1360178;-78
2021/06/03 07:23:37;;;;;;;9.07;6.47;;;;;;;;;;741892;186;916188;-77
2021/06/03 07:26:03;;;;;;;14.20;8.10;;;;;;;;;;748355;184;912253;-79
2021/06/03 07:28:29;;;;;;;13.60;8.77;;;;;;;;;;739036;186;1003093;-79
2021/06/03 07:30:55;;;;;;;9.70;8.20;;;;;;;;;;739746;186;917841;-78
2021/06/03 07:33:21;;;;;;;10.23;8.50;;;;;;;;;;745476;187;918848;-77
2021/06/03 07:35:47;;;;;;;9.23;7.50;;;;;;;;;;736835;187;918672;-78
2021/06/03 07:38:12;;;;;;;11.37;6.93;;;;;;;;;;739914;187;917349;-77
2021/06/03 07:40:38;;;;;;;15.23;7.23;;;;;;;;;;749820;187;899967;-78
2021/06/03 07:43:04;;;;;;;10.97;7.10;;;;;;;;;;742949;187;905418;-78
2021/06/03 07:45:30;;;;;;;9.25;7.12;;;;;;;;;;742327;187;1020480;-78
2021/06/03 07:47:56;;;;;;;13.83;7.20;;;;;;;;;;743195;187;919660;-78
2021/06/03 07:50:22;;;;;;;9.17;7.37;;;;;;;;;;743423;187;860796;-78
2021/06/03 07:52:48;;;;;;;15.03;6.97;;;;;;;;;;745898;187;939689;-77
2021/06/03 07:55:14;;;;;;;12.27;6.67;;;;;;;;;;740332;187;918596;-78
2021/06/03 07:57:39;;;;;;;9.63;7.13;;;;;;;;;;741906;187;1094927;-78
2021/06/03 08:00:06;;;;;;;11.30;7.83;;;;;;;;;;744837;187;927374;-79
2021/06/03 08:02:32;;;;;;;11.60;7.07;;;;;;;;;;739405;187;919017;-79
2021/06/03 08:04:58;;;;;;;11.60;7.07;;;;;;;;;;745537;187;902401;-78
2021/06/03 08:07:23;;;;;;;15.07;7.80;;;;;;;;;;751032;184;916637;-78
2021/06/03 08:09:49;;;;;;;9.20;7.22;;;;;;;;;;744062;186;916028;-77
2021/06/03 08:12:15;;;;;;;9.93;7.30;;;;;;;;;;749899;186;916900;-78
2021/06/03 08:14:42;;;;;;;13.48;6.90;;;;;;;;;;746233;186;853608;-77
2021/06/03 08:17:08;;;;;;;15.98;8.90;;;;;;;;;;747164;186;913308;-77
2021/06/03 08:19:33;;;;;;;11.80;7.53;;;;;;;;;;750494;186;713889;-78
2021/06/03 08:22:00;;;;;;;9.10;6.23;;;;;;;;;;750399;186;715197;-77
2021/06/03 08:24:25;;;;;;;10.43;5.87;;;;;;;;;;756202;186;712441;-77
2021/06/03 08:26:53;;;;;;;19.30;9.40;;;;;;;;;;752612;187;770298;-78
2021/06/03 08:29:17;;;;;;;12.80;7.73;;;;;;;;;;751723;186;717039;-79
2021/06/03 08:31:43;;;;;;;9.33;5.60;;;;;;;;;;745386;186;713376;-77
2021/06/03 08:34:11;;;;;;;10.57;6.47;;;;;;;;;;743700;186;863154;-78
2021/06/03 08:36:35;;;;;;;8.90;4.77;;;;;;;;;;750262;186;635041;-81
2021/06/03 08:39:01;;;;;;;7.43;5.40;;;;;;;;;;753637;186;915961;-77
2021/06/03 08:41:27;;;;;;;7.10;4.50;;;;;;;;;;741556;186;920204;-78
2021/06/03 08:43:52;;;;;;;9.10;5.00;;;;;;;;;;749877;187;812800;-79
2021/06/03 08:46:18;;;;;;;8.20;5.60;;;;;;;;;;742288;187;915237;-78
2021/06/03 08:48:46;;;;;;;7.53;5.23;;;;;;;;;;738663;187;916330;-79
2021/06/03 08:51:10;;;;;;;8.30;5.43;;;;;;;;;;740215;187;1017554;-79
2021/06/03 08:53:36;;;;;;;10.00;5.70;;;;;;;;;;750778;187;915628;-78
2021/06/03 08:58:33;;;;;;;9.40;5.70;;;;;;;;;;740375;187;914796;-79
2021/06/03 09:00:59;;;;;;;7.53;5.30;;;;;;;;;;747048;187;811064;-78
2021/06/03 09:03:25;;;;;;;11.03;6.97;;;;;;;;;;737936;187;916030;-79
2021/06/03 09:05:51;;;;;;;9.88;5.37;;;;;;;;;;744123;187;913465;-78
2021/06/03 09:08:22;;;;;;;15.83;5.30;;;;;;;;;;739229;187;997269;-78
2021/06/03 09:10:48;;;;;;;8.13;6.23;;;;;;;;;;746195;187;1082882;-78
2021/06/03 09:13:14;;;;;;;6.10;5.27;;;;;;;;;;741011;187;914011;-77
2021/06/03 09:15:41;;;;;;;19.80;5.68;;;;;;;;;;742374;187;894364;-78
2021/06/03 09:18:09;;;;;;;10.13;5.50;;;;;;;;;;744691;187;876804;-79
2021/06/03 09:20:33;;;;;;;11.00;5.07;;;;;;;;;;741440;186;826280;-80
2021/06/03 09:22:59;;;;;;;5.90;4.40;;;;;;;;;;742812;186;1015699;-79
2021/06/03 09:25:33;;;;;;;6.13;4.90;;;;;;;;;;739751;186;1021014;-79
2021/06/03 09:28:05;;;;;;;10.57;4.97;;;;;;;;;;752458;186;830077;-82
2021/06/03 09:30:31;;;;;;;6.00;4.70;;;;;;;;;;746935;186;905370;-80
2021/06/03 09:32:57;;;;;;;5.17;4.33;;;;;;;;;;741668;186;872768;-80
2021/06/03 09:35:24;;;;;;;6.23;4.17;;;;;;;;;;744224;186;958823;-80
2021/06/03 09:37:49;;;;;;;6.30;4.60;;;;;;;;;;746199;186;910626;-81
2021/06/03 09:40:19;;;;;;;6.50;4.70;;;;;;;;;;737353;186;942652;-80
2021/06/03 09:42:45;;;;;;;6.50;4.60;;;;;;;;;;744268;186;914984;-81
2021/06/03 09:45:11;;;;;;;7.70;4.50;;;;;;;;;;743318;186;915415;-78
2021/06/03 09:47:37;;;;;;;6.40;4.43;;;;;;;;;;730537;189;1013212;-81
2021/06/03 09:50:03;;;;;;;7.37;4.60;;;;;;;;;;741122;186;911152;-81
2021/06/03 09:52:29;;;;;;;10.53;4.37;;;;;;;;;;741458;186;916392;-80
2021/06/03 09:54:56;;;;;;;6.77;5.23;;;;;;;;;;748078;186;890450;-79
2021/06/03 09:57:20;;;;;;;11.63;4.43;;;;;;;;;;743508;187;919869;-80
2021/06/03 09:59:46;;;;;;;7.37;4.60;;;;;;;;;;737423;187;922309;-80
2021/06/03 10:02:13;;;;;;;10.57;4.20;;;;;;;;;;745380;187;911738;-80
2021/06/03 10:04:42;;;;;;;4.70;3.83;;;;;;;;;;741096;187;901888;-81
2021/06/03 10:07:12;;;;;;;6.07;3.93;;;;;;;;;;741846;187;914567;-81
2021/06/03 10:09:37;;;;;;;6.23;4.17;;;;;;;;;;736033;187;1021828;-80
2021/06/03 10:12:03;;;;;;;7.40;4.23;;;;;;;;;;745440;187;909369;-79
2021/06/03 10:14:29;;;;;;;7.67;4.33;;;;;;;;;;740652;187;916763;-80
2021/06/03 10:16:55;;;;;;;4.33;3.67;;;;;;;;;;737680;187;911609;-80
2021/06/03 10:19:22;;;;;;;10.40;4.70;;;;;;;;;;746516;187;878105;-79
2021/06/03 10:21:58;;;;;;;11.27;5.23;;;;;;;;;;744017;187;917894;-79
2021/06/03 10:24:24;;;;;;;4.53;3.53;;;;;;;;;;741611;187;959146;-79
2021/06/03 10:26:54;;;;;;;7.80;4.50;;;;;;;;;;742395;187;1000776;-79
2021/06/03 10:29:20;;;;;;;8.17;4.50;;;;;;;;;;747475;187;939455;-79
2021/06/03 10:31:45;;;;;;;10.60;5.60;;;;;;;;;;743364;185;913136;-80
2021/06/03 10:34:11;;;;;;;12.90;5.32;;;;;;;;;;743980;186;916571;-79
2021/06/03 10:36:38;;;;;;;4.90;3.67;;;;;;;;;;748884;186;890583;-80
2021/06/03 10:39:04;;;;;;;10.03;4.70;;;;;;;;;;741269;186;909178;-81
2021/06/03 10:41:30;;;;;;;10.07;5.10;;;;;;;;;;740976;186;915083;-80
2021/06/03 10:43:55;;;;;;;8.67;4.30;;;;;;;;;;741873;186;1009208;-79
2021/06/03 10:46:21;;;;;;;5.83;3.73;;;;;;;;;;749775;186;1010880;-80
2021/06/03 10:48:47;;;;;;;7.20;4.00;;;;;;;;;;740037;186;895145;-80
2021/06/03 10:51:13;;;;;;;6.27;4.50;;;;;;;;;;743963;186;882021;-81
2021/06/03 10:53:42;;;;;;;7.80;4.53;;;;;;;;;;750200;186;819065;-78
2021/06/03 10:56:08;;;;;;;9.80;5.30;;;;;;;;;;742460;186;977666;-79
2021/06/03 10:58:34;;;;;;;7.37;4.70;;;;;;;;;;741738;186;1020366;-81
2021/06/03 11:01:02;;;;;;;7.07;4.30;;;;;;;;;;740920;186;1147169;-79
2021/06/03 11:03:34;;;;;;;6.53;4.60;;;;;;;;;;742630;187;921840;-80
2021/06/03 11:06:00;;;;;;;7.53;4.70;;;;;;;;;;746660;186;918953;-79
2021/06/03 11:08:34;;;;;;;6.97;4.80;;;;;;;;;;741456;187;918594;-80
2021/06/03 11:11:06;;;;;;;7.03;4.10;;;;;;;;;;744477;187;899707;-79
2021/06/03 11:13:32;;;;;;;7.77;4.90;;;;;;;;;;746575;187;640809;-81
2021/06/03 11:16:01;;;;;;;6.00;5.13;;;;;;;;;;743873;187;914669;-81
2021/06/03 11:18:44;;;;;;;8.50;5.00;;;;;;;;;;745173;187;894339;-78
2021/06/03 11:21:10;;;;;;;9.80;5.60;;;;;;;;;;739219;187;921896;-80
2021/06/03 11:23:44;;;;;;;7.87;5.17;;;;;;;;;;738059;187;915220;-80
2021/06/03 11:26:10;;;;;;;9.43;6.03;;;;;;;;;;746257;187;941004;-80
2021/06/03 11:28:36;;;;;;;7.50;5.40;;;;;;;;;;738435;187;880845;-79
2021/06/03 11:31:07;;;;;;;7.00;5.20;;;;;;;;;;741291;187;917570;-80
2021/06/03 11:33:54;;;;;;;7.63;5.30;;;;;;;;;;736840;187;918739;-78
2021/06/03 11:36:31;;;;;;;7.23;6.00;;;;;;;;;;736261;187;897129;-79
2021/06/03 11:38:57;;;;;;;8.63;5.30;;;;;;;;;;736795;187;778797;-81
2021/06/03 11:41:28;;;;;;;8.90;5.63;;;;;;;;;;753476;184;614534;-81
2021/06/03 11:44:00;;;;;;;6.53;4.90;;;;;;;;;;748954;186;625464;-80
2021/06/03 11:46:32;;;;;;;7.93;5.90;;;;;;;;;;745234;186;797016;-80
2021/06/03 11:48:59;;;;;;;7.63;4.97;;;;;;;;;;748929;186;909319;-79
2021/06/03 11:51:25;;;;;;;13.50;6.37;;;;;;;;;;751931;184;707373;-80
2021/06/03 11:53:50;;;;;;;8.97;6.03;;;;;;;;;;753185;186;917671;-80
2021/06/03 11:56:19;;;;;;;7.17;4.90;;;;;;;;;;741065;186;919319;-79
2021/06/03 11:58:44;;;;;;;11.75;5.55;;;;;;;;;;743710;186;993730;-79
2021/06/03 12:01:10;;;;;;;14.20;6.13;;;;;;;;;;748283;184;917341;-80
2021/06/03 12:03:37;;;;;;;8.07;6.40;;;;;;;;;;739215;186;926157;-80
2021/06/03 12:06:02;;;;;;;8.30;5.50;;;;;;;;;;744579;186;970288;-78
2021/06/03 12:08:34;;;;;;;9.63;5.97;;;;;;;;;;749776;186;896982;-80
2021/06/03 12:11:00;;;;;;;10.60;7.10;;;;;;;;;;743073;186;816179;-79
2021/06/03 12:13:26;;;;;;;12.57;5.33;;;;;;;;;;741219;186;1002985;-81
2021/06/03 12:15:52;;;;;;;8.97;5.83;;;;;;;;;;739559;186;922075;-80
2021/06/03 12:18:17;;;;;;;8.97;4.70;;;;;;;;;;751255;184;916108;-81
2021/06/03 12:20:43;;;;;;;8.73;5.50;;;;;;;;;;740426;187;814819;-82
2021/06/03 12:23:09;;;;;;;14.97;5.40;;;;;;;;;;745458;187;877913;-82
2021/06/03 12:25:36;;;;;;;8.80;5.30;;;;;;;;;;752167;187;908469;-81
2021/06/03 12:28:02;;;;;;;6.73;5.00;;;;;;;;;;741274;187;816430;-79
2021/06/03 12:30:29;;;;;;;5.67;4.67;;;;;;;;;;741129;187;919929;-78
2021/06/03 12:32:59;;;;;;;7.53;4.80;;;;;;;;;;745947;187;887299;-79
2021/06/03 12:35:45;;;;;;;7.17;4.83;;;;;;;;;;744434;187;910951;-82
2021/06/03 12:38:11;;;;;;;9.07;5.20;;;;;;;;;;741926;187;894040;-81
2021/06/03 12:40:37;;;;;;;6.60;5.00;;;;;;;;;;740091;187;916169;-81
2021/06/03 12:43:04;;;;;;;7.40;5.33;;;;;;;;;;738324;187;1109290;-78
2021/06/03 12:45:30;;;;;;;6.90;5.17;;;;;;;;;;748556;187;919943;-80
2021/06/03 12:47:56;;;;;;;6.20;5.47;;;;;;;;;;739928;187;918932;-79
2021/06/03 12:50:22;;;;;;;6.13;4.03;;;;;;;;;;744437;187;916740;-80
2021/06/03 12:52:48;;;;;;;8.97;5.27;;;;;;;;;;749526;187;918296;-79
2021/06/03 12:55:13;;;;;;;10.43;4.90;;;;;;;;;;742126;186;917116;-80
2021/06/03 12:57:39;;;;;;;6.40;4.73;;;;;;;;;;739742;186;918863;-80
2021/06/03 13:00:05;;;;;;;8.67;5.33;;;;;;;;;;743379;186;907094;-80
2021/06/03 13:02:31;;;;;;;9.67;5.47;;;;;;;;;;745513;186;869992;-80
2021/06/03 13:04:57;;;;;;;7.13;5.00;;;;;;;;;;746280;186;815456;-80
2021/06/03 13:07:25;;;;;;;8.37;5.50;;;;;;;;;;744838;186;821043;-80
2021/06/03 13:09:56;;;;;;;9.53;4.70;;;;;;;;;;751718;186;866524;-80
2021/06/03 13:12:22;;;;;;;7.47;5.23;;;;;;;;;;743742;186;814844;-80
2021/06/03 13:14:48;;;;;;;9.60;4.90;;;;;;;;;;741386;186;871446;-81
2021/06/03 13:17:14;;;;;;;11.93;5.00;;;;;;;;;;741550;186;885903;-79
2021/06/03 13:19:40;;;;;;;5.17;4.60;;;;;;;;;;747441;186;793703;-79
2021/06/03 13:22:06;;;;;;;6.60;4.57;;;;;;;;;;741664;186;977025;-80
2021/06/03 13:24:32;;;;;;;11.10;4.50;;;;;;;;;;740470;186;918363;-80
2021/06/03 13:26:57;;;;;;;9.73;5.10;;;;;;;;;;742151;186;908741;-80
2021/06/03 13:29:23;;;;;;;6.23;4.87;;;;;;;;;;740553;186;1018037;-79
2021/06/03 13:31:49;;;;;;;6.90;5.30;;;;;;;;;;738859;187;815918;-80
2021/06/03 13:34:21;;;;;;;11.70;4.60;;;;;;;;;;744433;187;915665;-79
2021/06/03 13:36:53;;;;;;;8.83;5.20;;;;;;;;;;746515;186;894613;-79
2021/06/03 13:39:19;;;;;;;8.53;5.37;;;;;;;;;;741312;187;803390;-78
2021/06/03 13:41:46;;;;;;;13.13;5.70;;;;;;;;;;741964;187;812925;-79
2021/06/03 13:44:11;;;;;;;8.10;5.33;;;;;;;;;;747096;187;918997;-81
2021/06/03 13:46:36;;;;;;;6.50;4.90;;;;;;;;;;743943;187;917964;-79
2021/06/03 13:49:02;;;;;;;6.67;4.63;;;;;;;;;;745837;187;920817;-80
2021/06/03 13:51:28;;;;;;;7.27;4.80;;;;;;;;;;742415;187;1019769;-79
2021/06/03 13:53:54;;;;;;;6.90;4.37;;;;;;;;;;748585;184;919152;-79
2021/06/03 13:56:20;;;;;;;8.13;3.90;;;;;;;;;;741310;187;919055;-80
2021/06/03 13:58:46;;;;;;;9.98;4.68;;;;;;;;;;738857;187;987886;-78
2021/06/03 14:01:14;;;;;;;4.47;3.83;;;;;;;;;;742731;187;815658;-81
2021/06/03 14:03:41;;;;;;;6.03;4.03;;;;;;;;;;740426;187;910630;-81
2021/06/03 14:06:07;;;;;;;6.80;4.70;;;;;;;;;;744754;186;908219;-80
2021/06/03 14:08:33;;;;;;;8.63;3.90;;;;;;;;;;754485;186;862634;-80
2021/06/03 14:11:00;;;;;;;5.00;3.93;;;;;;;;;;743218;186;919503;-80
2021/06/03 14:13:26;;;;;;;6.30;4.10;;;;;;;;;;746692;186;816102;-79